Time;durP1;ratioP1;P1;durP2;ratioP2;P2;SDS_P1;SDS_P2;PMS_P1;PMS_P2;Temp;Humidity;BMP_temperature;BMP_pressure;BME280_temperature;BME280_humidity;BME280_pressure;Samples;Min_cycle;Max_cycle;Signal;HPM_P1;HPM_P2
2022/12/17 13:06:10;;;;;;;62.63;24.65;;;;;;;-4.66;100.00;101577.69;5073693;28;20048;-71
2022/12/17 13:08:38;;;;;;;59.22;25.70;;;;;;;-4.70;100.00;101582.69;5075736;28;20048;-72
2022/12/17 13:11:24;;;;;;;60.88;25.05;;;;;;;-4.90;100.00;101545.88;5071905;28;20075;-71
2022/12/17 13:13:56;;;;;;;74.95;30.85;;;;;;;-4.80;100.00;101559.97;5081244;28;20048;-71
2022/12/17 13:16:49;;;;;;;71.30;32.75;;;;;;;-4.77;100.00;101571.31;5078773;28;20054;-72
2022/12/17 13:19:31;;;;;;;62.33;26.15;;;;;;;-4.68;100.00;101563.84;5076347;28;20078;-70
2022/12/17 13:22:15;;;;;;;58.83;26.00;;;;;;;-4.62;100.00;101558.88;5070624;28;20062;-72
2022/12/17 13:24:56;;;;;;;65.85;26.25;;;;;;;-4.61;100.00;101554.59;5074126;28;20573;-71
2022/12/17 13:27:34;;;;;;;63.38;25.42;;;;;;;-4.67;100.00;101538.88;5067237;28;20049;-72
2022/12/17 13:30:17;;;;;;;65.25;26.35;;;;;;;-4.48;100.00;101568.78;5068700;28;20068;-70
2022/12/17 13:32:56;;;;;;;68.35;26.83;;;;;;;-4.57;100.00;101542.66;5080671;27;20044;-71
2022/12/17 13:35:32;;;;;;;72.30;27.50;;;;;;;-4.37;100.00;101565.72;5077663;28;20718;-71
2022/12/17 13:38:04;;;;;;;64.80;27.13;;;;;;;-4.53;100.00;101549.66;5072330;28;20051;-71
2022/12/17 13:41:10;;;;;;;66.88;28.05;;;;;;;-4.49;100.00;101575.66;5072824;28;20044;-71
2022/12/17 13:43:44;;;;;;;66.65;26.63;;;;;;;-4.54;100.00;101572.03;5077838;28;20067;-70
2022/12/17 13:46:21;;;;;;;60.05;25.33;;;;;;;-4.57;100.00;101584.00;5071016;28;20056;-72
2022/12/17 13:48:59;;;;;;;61.30;25.20;;;;;;;-4.76;100.00;101579.94;5078452;28;20093;-71
2022/12/17 13:51:29;;;;;;;63.53;25.58;;;;;;;-4.82;100.00;101579.72;5071357;28;20037;-70
2022/12/17 13:54:01;;;;;;;60.70;24.95;;;;;;;-5.09;100.00;101543.50;5084132;28;20055;-70
2022/12/17 13:56:33;;;;;;;60.22;26.00;;;;;;;-5.17;100.00;101519.09;5076577;28;20496;-70
2022/12/17 13:59:01;;;;;;;66.28;26.13;;;;;;;-4.90;100.00;101578.59;5073828;28;20044;-72
2022/12/17 14:01:43;;;;;;;67.53;26.13;;;;;;;-4.95;100.00;101581.00;5075555;28;20071;-71
2022/12/17 14:04:19;;;;;;;61.88;24.77;;;;;;;-4.93;100.00;101569.03;5077532;28;20037;-72
2022/12/17 14:06:47;;;;;;;61.15;24.77;;;;;;;-4.95;100.00;101562.91;5072631;28;20052;-69
2022/12/17 14:09:19;;;;;;;59.30;24.00;;;;;;;-4.95;100.00;101568.09;5078799;28;20055;-72
2022/12/17 14:14:38;;;;;;;62.00;24.05;;;;;;;-5.00;100.00;101543.78;5073891;28;20046;-70
2022/12/17 14:17:05;;;;;;;63.88;24.55;;;;;;;-4.72;100.00;101569.72;5072619;28;20055;-69
2022/12/17 14:19:33;;;;;;;62.40;24.73;;;;;;;-4.86;100.00;101546.84;5064562;28;20052;-72
2022/12/17 14:22:01;;;;;;;59.25;24.90;;;;;;;-4.74;100.00;101568.81;5070418;28;20423;-70
2022/12/17 14:24:28;;;;;;;60.95;24.00;;;;;;;-4.76;100.00;101577.34;5070989;28;20048;-70
2022/12/17 14:26:58;;;;;;;58.70;24.13;;;;;;;-4.79;100.00;101569.47;5074797;28;20142;-70
2022/12/17 14:29:28;;;;;;;64.57;25.15;;;;;;;-4.78;100.00;101569.53;5070538;28;20552;-72
2022/12/17 14:31:55;;;;;;;59.70;23.90;;;;;;;-4.82;100.00;101582.28;5072088;28;20442;-71
2022/12/17 14:34:22;;;;;;;61.00;24.40;;;;;;;-4.97;100.00;101577.47;5078317;28;20044;-72
2022/12/17 14:36:59;;;;;;;71.28;26.00;;;;;;;-4.94;100.00;101590.50;5080194;28;20487;-74
2022/12/17 14:39:31;;;;;;;60.53;24.42;;;;;;;-4.90;100.00;101586.34;5076273;28;20579;-72
2022/12/17 14:42:24;;;;;;;63.08;23.70;;;;;;;-4.98;100.00;101592.09;5071960;28;20056;-72
2022/12/17 14:44:58;;;;;;;62.63;23.90;;;;;;;-5.12;100.00;101600.19;5074793;28;20046;-73
2022/12/17 14:47:30;;;;;;;65.68;24.85;;;;;;;-5.43;100.00;101555.22;5077556;28;20056;-70
2022/12/17 14:49:57;;;;;;;64.45;24.63;;;;;;;-5.24;100.00;101589.44;5076468;28;20044;-74
2022/12/17 14:52:49;;;;;;;61.83;24.80;;;;;;;-5.30;100.00;101587.50;5082029;28;20052;-71
2022/12/17 14:55:30;;;;;;;70.22;25.33;;;;;;;-5.39;100.00;101590.66;5080831;28;20040;-71
2022/12/17 14:58:19;;;;;;;66.90;25.73;;;;;;;-5.43;100.00;101600.78;5076436;28;20140;-71
2022/12/17 15:00:48;;;;;;;66.32;25.77;;;;;;;-5.43;100.00;101603.38;5074385;28;20052;-73
2022/12/17 15:03:24;;;;;;;71.53;26.13;;;;;;;-5.46;100.00;101595.50;5077761;28;20078;-72
2022/12/17 15:05:56;;;;;;;70.38;26.20;;;;;;;-5.45;100.00;101605.00;5073943;28;20048;-71
2022/12/17 15:08:23;;;;;;;82.10;27.20;;;;;;;-5.47;100.00;101599.78;5069035;28;20060;-73
2022/12/17 15:10:50;;;;;;;70.65;26.58;;;;;;;-5.48;100.00;101610.06;5076776;28;20438;-72
2022/12/17 15:13:16;;;;;;;72.53;27.10;;;;;;;-5.51;100.00;101605.66;5073655;28;20045;-73
2022/12/17 15:15:43;;;;;;;68.10;26.58;;;;;;;-5.54;100.00;101605.56;5066505;28;20070;-72
2022/12/17 15:18:10;;;;;;;74.28;27.60;;;;;;;-5.51;100.00;101604.81;5070764;28;20135;-72
2022/12/17 15:20:36;;;;;;;65.15;25.60;;;;;;;-5.47;100.00;101611.81;5069992;28;20055;-71
2022/12/17 15:23:03;;;;;;;64.57;24.67;;;;;;;-5.46;100.00;101614.47;5084629;28;20048;-71
2022/12/17 15:25:30;;;;;;;59.45;23.45;;;;;;;-5.53;100.00;101612.50;5079807;28;20079;-72
2022/12/17 15:27:56;;;;;;;64.90;24.25;;;;;;;-5.59;100.00;101617.41;5069247;28;20048;-72
2022/12/17 15:30:23;;;;;;;65.47;24.20;;;;;;;-5.63;100.00;101612.94;5076672;28;20436;-72
2022/12/17 15:32:49;;;;;;;63.22;23.60;;;;;;;-5.56;100.00;101619.22;5085239;28;20546;-71
2022/12/17 15:35:18;;;;;;;59.90;22.80;;;;;;;-5.60;100.00;101612.19;5079149;28;20041;-70
2022/12/17 15:37:45;;;;;;;59.97;22.38;;;;;;;-5.79;100.00;101592.56;5081708;28;20817;-73
2022/12/17 15:40:11;;;;;;;59.47;23.15;;;;;;;-5.63;100.00;101631.00;5082058;28;20059;-73
2022/12/17 15:45:30;;;;;;;68.57;24.65;;;;;;;-5.91;100.00;101630.81;5089248;28;20492;-72
2022/12/17 15:47:57;;;;;;;71.20;25.55;;;;;;;-5.96;100.00;101630.63;5080106;28;20045;-70
2022/12/17 15:50:23;;;;;;;65.25;23.95;;;;;;;-6.17;100.00;101609.16;5068506;28;20040;-73
2022/12/17 15:52:50;;;;;;;66.07;24.48;;;;;;;-6.00;100.00;101633.03;5079942;28;20381;-70
2022/12/17 15:55:16;;;;;;;69.45;25.17;;;;;;;-5.99;100.00;101640.84;5071401;28;20434;-70
2022/12/17 15:57:43;;;;;;;71.15;24.05;;;;;;;-6.03;100.00;101633.78;5073375;28;20052;-72
2022/12/17 16:00:10;;;;;;;80.95;23.67;;;;;;;-6.09;100.00;101638.69;5070539;28;20503;-72
2022/12/17 16:02:37;;;;;;;71.65;24.45;;;;;;;-6.12;100.00;101634.28;5069878;28;20044;-72
2022/12/17 16:05:05;;;;;;;67.07;24.90;;;;;;;-6.25;100.00;101618.28;5079722;28;20048;-71
2022/12/17 16:07:31;;;;;;;67.25;25.10;;;;;;;-6.14;100.00;101635.94;5066016;28;20066;-72
2022/12/17 16:09:58;;;;;;;71.63;26.90;;;;;;;-6.11;100.00;101637.75;5075259;28;20048;-73
2022/12/17 16:12:31;;;;;;;78.78;26.48;;;;;;;-6.09;100.00;101646.44;5067873;28;20471;-70
2022/12/17 16:14:57;;;;;;;70.60;25.63;;;;;;;-6.09;100.00;101638.69;5078181;28;20039;-71
2022/12/17 16:17:24;;;;;;;73.35;26.33;;;;;;;-6.11;100.00;101638.63;5074400;28;20044;-72
2022/12/17 16:19:50;;;;;;;80.25;26.92;;;;;;;-6.06;100.00;101655.19;5075760;28;20048;-73
2022/12/17 16:22:17;;;;;;;82.60;27.17;;;;;;;-6.20;100.00;101609.91;5074384;28;20536;-73
2022/12/17 16:24:44;;;;;;;73.20;24.90;;;;;;;-5.94;100.00;101649.63;5081855;28;20724;-71
2022/12/17 16:27:12;;;;;;;70.82;25.67;;;;;;;-5.91;100.00;101654.91;5071341;28;20049;-71
2022/12/17 16:29:39;;;;;;;65.60;23.17;;;;;;;-5.93;100.00;101655.66;5078337;28;20045;-71
2022/12/17 16:32:05;;;;;;;71.38;24.15;;;;;;;-6.00;100.00;101653.66;5073902;28;20047;-73
2022/12/17 16:34:31;;;;;;;64.40;24.92;;;;;;;-6.10;100.00;101661.03;5074221;28;20163;-71
2022/12/17 16:37:00;;;;;;;73.82;25.48;;;;;;;-6.21;100.00;101641.66;5073474;28;20055;-71
2022/12/17 16:39:28;;;;;;;70.28;23.35;;;;;;;-6.32;100.00;101645.53;5066084;28;20040;-72
2022/12/17 16:41:55;;;;;;;59.72;21.30;;;;;;;-6.27;100.00;101664.59;5064397;28;20040;-71
2022/12/17 16:44:22;;;;;;;69.20;24.23;;;;;;;-6.26;100.00;101678.38;5071475;28;20060;-73
2022/12/17 16:46:48;;;;;;;60.47;22.73;;;;;;;-6.30;100.00;101666.22;5069771;28;20075;-69
2022/12/17 16:49:18;;;;;;;61.30;21.38;;;;;;;-6.51;100.00;101637.84;5070515;28;20123;-72
2022/12/17 16:51:47;;;;;;;68.63;25.42;;;;;;;-6.29;100.00;101667.94;5065597;28;20152;-69
2022/12/17 16:54:17;;;;;;;65.22;23.60;;;;;;;-6.12;100.00;101672.09;5072225;27;20095;-71
2022/12/17 16:56:44;;;;;;;60.83;23.90;;;;;;;-6.16;100.00;101668.53;5071350;28;20515;-72
2022/12/17 16:59:12;;;;;;;63.13;24.08;;;;;;;-6.17;100.00;101676.19;5068952;28;22130;-71
2022/12/17 17:01:43;;;;;;;59.97;22.27;;;;;;;-6.15;100.00;101677.16;5073912;28;20051;-70
2022/12/17 17:04:11;;;;;;;75.45;25.65;;;;;;;-6.32;100.00;101647.22;5075915;28;20044;-72
2022/12/17 17:06:44;;;;;;;60.47;22.45;;;;;;;-6.20;100.00;101688.94;5071262;28;20048;-70
2022/12/17 17:09:11;;;;;;;66.97;24.10;;;;;;;-6.20;100.00;101696.69;5072992;28;20134;-72
2022/12/17 17:11:38;;;;;;;67.95;22.92;;;;;;;-6.24;100.00;101695.66;5069299;28;20044;-71
2022/12/17 17:14:06;;;;;;;63.72;21.98;;;;;;;-6.31;100.00;101695.38;5065291;28;20098;-70
2022/12/17 17:16:33;;;;;;;69.53;23.67;;;;;;;-6.32;100.00;101702.22;5073824;28;20052;-72
2022/12/17 17:19:00;;;;;;;66.80;22.83;;;;;;;-6.35;100.00;101696.06;5084147;28;20104;-69
2022/12/17 17:21:33;;;;;;;64.63;21.80;;;;;;;-6.43;100.00;101693.13;5073880;28;20039;-69
2022/12/17 17:24:08;;;;;;;69.05;23.70;;;;;;;-6.42;100.00;101697.47;5086064;28;20051;-70
2022/12/17 17:26:35;;;;;;;71.88;21.92;;;;;;;-6.50;100.00;101673.09;5082838;28;20126;-70
2022/12/17 17:29:02;;;;;;;68.05;23.80;;;;;;;-6.46;100.00;101695.59;5088520;28;20123;-69
2022/12/17 17:31:29;;;;;;;66.13;22.85;;;;;;;-6.61;100.00;101661.47;5075117;28;20074;-70
2022/12/17 17:34:15;;;;;;;66.45;21.48;;;;;;;-6.37;100.00;101701.13;5074282;28;20044;-73
2022/12/17 17:36:42;;;;;;;69.40;23.58;;;;;;;-6.49;100.00;101705.78;5081463;28;20193;-71
2022/12/17 17:39:08;;;;;;;73.45;22.55;;;;;;;-6.56;100.00;101696.00;5078311;27;20048;-70
2022/12/17 17:41:36;;;;;;;74.93;23.15;;;;;;;-6.65;100.00;101695.63;5068478;28;20040;-68
2022/12/17 17:44:05;;;;;;;63.63;21.45;;;;;;;-6.67;100.00;101700.72;5086755;28;20044;-70
2022/12/17 17:46:32;;;;;;;65.97;22.23;;;;;;;-6.79;100.00;101680.47;5085524;28;20452;-72
2022/12/17 17:49:01;;;;;;;58.97;21.75;;;;;;;-6.61;100.00;101708.69;5079476;28;20044;-73
2022/12/17 17:51:30;;;;;;;65.00;23.38;;;;;;;-6.60;100.00;101699.25;5066420;28;20063;-70
2022/12/17 17:54:17;;;;;;;66.70;21.98;;;;;;;-6.55;100.00;101706.38;5078403;28;20425;-70
2022/12/17 17:56:43;;;;;;;66.80;22.55;;;;;;;-6.55;100.00;101703.81;5078303;27;20473;-70
2022/12/17 17:59:14;;;;;;;62.10;19.98;;;;;;;-6.73;100.00;101685.00;5071108;28;20044;-71
2022/12/17 18:01:42;;;;;;;;;;;;;;;-6.59;100.00;101706.19;5069830;28;20442;-72
2022/12/17 18:04:12;;;;;;;59.30;19.88;;;;;;;-6.65;100.00;101711.97;5078908;28;20023;-72
2022/12/17 18:06:41;;;;;;;62.63;20.45;;;;;;;-6.66;100.00;101710.22;5079899;28;20045;-72
2022/12/17 18:09:27;;;;;;;61.05;21.00;;;;;;;-6.74;100.00;101678.06;5080268;28;20055;-70
2022/12/17 18:11:54;;;;;;;61.33;21.95;;;;;;;-6.73;100.00;101678.13;5082376;28;20044;-70
2022/12/17 18:14:20;;;;;;;58.15;21.65;;;;;;;-6.47;100.00;101706.72;5087782;28;20127;-73
2022/12/17 18:16:50;;;;;;;68.43;21.75;;;;;;;-6.46;100.00;101705.91;5084542;28;20476;-70
2022/12/17 18:19:20;;;;;;;66.30;22.52;;;;;;;-6.40;100.00;101713.88;5083575;28;20037;-70
2022/12/17 18:21:48;;;;;;;71.60;24.13;;;;;;;-6.50;100.00;101712.63;5081558;28;20083;-70
2022/12/17 18:24:21;;;;;;;67.97;22.70;;;;;;;-6.60;100.00;101700.16;5093406;27;20048;-71
2022/12/17 18:26:50;;;;;;;67.55;22.60;;;;;;;-6.58;100.00;101718.25;5090641;28;20380;-73
2022/12/17 18:29:23;;;;;;;70.53;23.25;;;;;;;-6.71;100.00;101724.56;5089420;28;20050;-69
2022/12/17 18:31:50;;;;;;;72.03;23.98;;;;;;;-6.73;100.00;101726.19;5080192;28;20044;-70
2022/12/17 18:34:20;;;;;;;70.95;23.52;;;;;;;-6.59;100.00;101721.63;5086881;28;20056;-71
2022/12/17 18:36:48;;;;;;;80.53;24.73;;;;;;;-6.59;100.00;101721.63;5088641;28;20555;-70
2022/12/17 18:39:23;;;;;;;70.72;23.90;;;;;;;-6.55;100.00;101726.13;5085873;28;20051;-72
2022/12/17 18:44:39;;;;;;;71.20;23.30;;;;;;;-6.40;100.00;101729.34;5089198;28;20071;-69
2022/12/17 18:47:06;;;;;;;63.97;21.13;;;;;;;-6.46;100.00;101734.25;5088852;28;20357;-70
2022/12/17 18:49:32;;;;;;;64.35;21.02;;;;;;;-6.62;100.00;101724.13;5082015;28;20428;-71
2022/12/17 18:51:59;;;;;;;66.18;21.55;;;;;;;-6.69;100.00;101734.94;5080480;28;20068;-70
2022/12/17 18:54:28;;;;;;;62.25;21.25;;;;;;;-6.85;100.00;101728.25;5090152;28;20043;-69
2022/12/17 18:56:59;;;;;;;74.18;20.85;;;;;;;-6.96;100.00;101735.50;5081829;28;20040;-71
2022/12/17 18:59:29;;;;;;;62.42;20.65;;;;;;;-7.03;100.00;101738.59;5089087;28;20048;-70
2022/12/17 19:01:56;;;;;;;69.38;20.35;;;;;;;-7.10;100.00;101727.16;5070430;28;20134;-74
2022/12/17 19:04:24;;;;;;;63.88;21.70;;;;;;;-7.01;100.00;101739.56;5082319;28;20041;-72
2022/12/17 19:06:52;;;;;;;63.97;21.02;;;;;;;-7.01;100.00;101748.97;5077883;28;20044;-71
2022/12/17 19:09:27;;;;;;;67.82;21.80;;;;;;;-7.16;100.00;101720.84;5090102;28;20051;-71
2022/12/17 19:11:56;;;;;;;63.30;22.10;;;;;;;-7.19;100.00;101725.84;5078325;28;20135;-73
2022/12/17 19:14:24;;;;;;;62.67;22.02;;;;;;;-7.10;100.00;101729.72;5081219;28;20047;-73
2022/12/17 19:16:53;;;;;;;61.80;21.30;;;;;;;-7.03;100.00;101743.75;5084631;28;20043;-70
2022/12/17 19:19:20;;;;;;;66.43;19.30;;;;;;;-7.02;100.00;101742.06;5087602;28;20055;-69
2022/12/17 19:21:48;;;;;;;63.70;20.83;;;;;;;-7.00;100.00;101759.34;5076718;28;20059;-71
2022/12/17 19:24:16;;;;;;;57.20;18.85;;;;;;;-7.09;100.00;101749.53;5089531;28;20044;-70
2022/12/17 19:26:43;;;;;;;59.40;20.17;;;;;;;-7.14;100.00;101757.84;5086536;28;20055;-71
2022/12/17 19:29:15;;;;;;;57.08;19.90;;;;;;;-7.14;100.00;101752.69;5091857;28;20052;-71
2022/12/17 19:31:42;;;;;;;57.30;20.92;;;;;;;-7.05;100.00;101742.78;5076336;28;20059;-71
2022/12/17 19:34:11;;;;;;;62.28;20.92;;;;;;;-7.08;100.00;101735.81;5077687;28;20051;-70
2022/12/17 19:36:39;;;;;;;62.95;21.70;;;;;;;-6.95;100.00;101741.53;5087711;28;20044;-72
2022/12/17 19:39:09;;;;;;;67.53;21.33;;;;;;;-6.90;100.00;101732.28;5094083;28;20384;-71
2022/12/17 19:41:36;;;;;;;52.10;16.70;;;;;;;-6.83;100.00;101753.25;5085568;28;20041;-69
2022/12/17 19:44:06;;;;;;;62.47;20.33;;;;;;;-6.73;100.00;101754.53;5086863;28;20088;-69
2022/12/17 19:46:41;;;;;;;58.63;20.17;;;;;;;-6.87;100.00;101740.16;5079538;28;20058;-72
2022/12/17 19:49:12;;;;;;;55.08;21.10;;;;;;;-6.88;100.00;101749.59;5081685;28;21066;-72
2022/12/17 19:51:43;;;;;;;62.63;19.38;;;;;;;-7.07;100.00;101718.66;5061891;28;20059;-70
2022/12/17 19:54:12;;;;;;;55.65;21.15;;;;;;;-6.96;100.00;101740.66;5069755;28;20486;-72
2022/12/17 19:56:40;;;;;;;66.00;21.10;;;;;;;-6.97;100.00;101744.03;5074888;28;20613;-71
2022/12/17 19:59:08;;;;;;;60.95;20.63;;;;;;;-7.16;100.00;101726.88;5071264;28;20486;-70
2022/12/17 20:01:41;;;;;;;67.20;22.60;;;;;;;-7.04;100.00;101765.16;5060371;28;20049;-71
2022/12/17 20:04:11;;;;;;;62.28;22.55;;;;;;;-7.16;100.00;101729.44;5070056;28;20090;-69
2022/12/17 20:06:39;;;;;;;66.82;22.33;;;;;;;-7.03;100.00;101756.63;5074166;28;20056;-72
2022/12/17 20:09:06;;;;;;;78.70;23.42;;;;;;;-7.05;100.00;101760.81;5078688;28;20055;-70
2022/12/17 20:11:33;;;;;;;74.93;23.08;;;;;;;-7.01;100.00;101751.53;5074138;28;20044;-71
2022/12/17 20:14:25;;;;;;;65.32;22.45;;;;;;;-6.93;100.00;101763.09;5074680;28;20056;-72
2022/12/17 20:17:00;;;;;;;73.43;22.85;;;;;;;-6.96;100.00;101756.09;5081765;28;20195;-69
2022/12/17 20:19:35;;;;;;;63.83;23.30;;;;;;;-6.96;100.00;101755.22;5074469;28;20040;-71
2022/12/17 20:22:03;;;;;;;63.50;21.77;;;;;;;-6.97;100.00;101758.59;5066050;28;20159;-70
2022/12/17 20:24:30;;;;;;;72.97;23.75;;;;;;;-7.11;100.00;101734.81;5070256;28;20048;-71
2022/12/17 20:26:59;;;;;;;72.75;23.45;;;;;;;-6.99;100.00;101766.25;5072990;28;20060;-71
2022/12/17 20:29:26;;;;;;;67.20;22.60;;;;;;;-6.97;100.00;101774.06;5068037;28;20449;-71
2022/12/17 20:31:53;;;;;;;66.45;22.60;;;;;;;-7.02;100.00;101780.66;5064248;28;20572;-70
2022/12/17 20:34:20;;;;;;;68.10;22.80;;;;;;;-7.13;100.00;101787.91;5067350;28;20045;-71
2022/12/17 20:36:47;;;;;;;62.28;20.92;;;;;;;-7.11;100.00;101787.19;5066868;28;20155;-71
2022/12/17 20:39:15;;;;;;;67.25;21.50;;;;;;;-7.15;100.00;101784.38;5072754;28;20492;-71
2022/12/17 20:41:42;;;;;;;64.88;22.50;;;;;;;-7.30;100.00;101757.94;5075395;28;20076;-70
2022/12/17 20:44:13;;;;;;;65.38;22.33;;;;;;;-7.12;100.00;101794.81;5064973;28;20037;-70
2022/12/17 20:46:41;;;;;;;57.83;21.05;;;;;;;-7.16;100.00;101798.94;5073320;28;20143;-70
2022/12/17 20:49:11;;;;;;;62.28;22.08;;;;;;;-7.11;100.00;101806.88;5069939;28;20055;-70
2022/12/17 20:51:38;;;;;;;60.08;21.52;;;;;;;-7.20;100.00;101775.56;5067273;28;20060;-70
2022/12/17 20:54:07;;;;;;;62.47;22.13;;;;;;;-7.15;100.00;101776.66;5071154;28;20059;-71
2022/12/17 20:56:34;;;;;;;63.88;21.42;;;;;;;-7.05;100.00;101807.16;5065811;28;20407;-70
2022/12/17 20:59:06;;;;;;;66.40;20.27;;;;;;;-7.07;100.00;101801.03;5076741;28;20071;-71
2022/12/17 21:01:35;;;;;;;60.03;20.88;;;;;;;-7.34;100.00;101772.34;5068712;28;20472;-69
2022/12/17 21:04:03;;;;;;;75.75;20.70;;;;;;;-7.28;100.00;101792.34;5071592;28;20051;-72
2022/12/17 21:06:34;;;;;;;51.50;19.33;;;;;;;-7.38;100.00;101791.00;5074698;28;20408;-71
2022/12/17 21:09:02;;;;;;;60.33;22.10;;;;;;;-7.45;100.00;101786.41;5076198;28;20398;-71
2022/12/17 21:11:30;;;;;;;58.38;21.58;;;;;;;-7.57;100.00;101760.97;5075076;28;20100;-70
2022/12/17 21:13:58;;;;;;;62.83;22.23;;;;;;;-7.49;100.00;101772.50;5076106;28;20056;-70
2022/12/17 21:16:28;;;;;;;65.10;21.60;;;;;;;-7.25;100.00;101792.50;5085056;28;20511;-70
2022/12/17 21:18:57;;;;;;;59.45;20.73;;;;;;;-7.26;100.00;101780.44;5078554;28;20040;-72
2022/12/17 21:21:29;;;;;;;53.97;20.00;;;;;;;-7.43;100.00;101772.81;5073982;28;20044;-72
2022/12/17 21:23:57;;;;;;;64.80;21.38;;;;;;;-7.30;100.00;101794.84;5064221;28;20333;-72
2022/12/17 21:26:36;;;;;;;57.90;19.48;;;;;;;-7.31;100.00;101798.22;5071591;28;20044;-71
2022/12/17 21:29:04;;;;;;;58.80;19.95;;;;;;;-7.36;100.00;101796.22;5069999;28;20055;-70
2022/12/17 21:31:37;;;;;;;57.22;20.50;;;;;;;-7.28;100.00;101802.63;5068350;28;20055;-70
2022/12/17 21:34:05;;;;;;;53.50;19.73;;;;;;;-7.26;100.00;101812.19;5065505;28;20071;-69
2022/12/17 21:36:33;;;;;;;56.97;19.88;;;;;;;-7.31;100.00;101802.50;5068146;28;20052;-70
2022/12/17 21:39:03;;;;;;;56.90;19.45;;;;;;;-7.46;100.00;101782.94;5072933;28;20068;-70
2022/12/17 21:41:37;;;;;;;59.85;21.05;;;;;;;-7.28;100.00;101820.66;5071049;28;20777;-71
2022/12/17 21:44:06;;;;;;;59.70;20.73;;;;;;;-7.37;100.00;101823.66;5071359;28;20048;-69
2022/12/17 21:46:33;;;;;;;61.33;21.83;;;;;;;-7.40;100.00;101822.66;5074064;28;20650;-70
2022/12/17 21:49:02;;;;;;;59.70;20.20;;;;;;;-7.42;100.00;101830.28;5066159;28;20071;-71
2022/12/17 21:51:30;;;;;;;57.05;21.13;;;;;;;-7.58;100.00;101823.53;5067550;28;20224;-70
2022/12/17 21:53:59;;;;;;;62.88;20.75;;;;;;;-7.61;100.00;101838.81;5063187;28;20403;-73
2022/12/17 21:56:26;;;;;;;41.53;14.93;;;;;;;-7.65;100.00;101826.59;5067095;28;20066;-72
2022/12/17 21:58:58;;;;;;;56.53;20.20;;;;;;;-7.69;100.00;101834.94;5067935;28;20811;-71
2022/12/17 22:01:28;;;;;;;54.75;19.10;;;;;;;-7.89;100.00;101810.84;5068156;28;20524;-71
2022/12/17 22:03:57;;;;;;;39.85;14.95;;;;;;;-7.86;100.00;101816.13;5066723;28;20047;-69
2022/12/17 22:06:26;;;;;;;52.92;18.73;;;;;;;-7.70;100.00;101838.31;5073063;28;20047;-70
2022/12/17 22:09:02;;;;;;;52.58;18.50;;;;;;;-7.73;100.00;101845.03;5066541;28;20052;-70
2022/12/17 22:11:45;;;;;;;57.78;20.27;;;;;;;-7.80;100.00;101829.28;5076867;28;20549;-70
2022/12/17 22:14:12;;;;;;;56.22;19.25;;;;;;;-7.72;100.00;101839.97;5059928;28;20143;-69
2022/12/17 22:16:47;;;;;;;62.47;20.20;;;;;;;-7.65;100.00;101826.59;5068103;28;20075;-69
2022/12/17 22:19:18;;;;;;;58.30;19.58;;;;;;;-7.63;100.00;101824.97;5068142;28;20147;-71
2022/12/17 22:21:49;;;;;;;58.40;19.55;;;;;;;-7.61;100.00;101828.50;5068816;28;20058;-71
2022/12/17 22:24:21;;;;;;;61.17;20.95;;;;;;;-7.61;100.00;101841.38;5068867;28;20056;-71
2022/12/17 22:26:48;;;;;;;55.90;19.52;;;;;;;-7.81;100.00;101819.81;5065644;28;20135;-72
2022/12/17 22:32:58;;;;;;;58.20;19.77;;;;;;;-7.72;100.00;101833.94;5080161;28;20048;-70
2022/12/17 22:34:48;;;;;;;60.72;20.58;;;;;;;-7.74;100.00;101821.00;5069130;28;20032;-69
2022/12/17 22:37:34;;;;;;;53.95;19.50;;;;;;;-7.82;100.00;101812.91;5078895;28;20735;-71
2022/12/17 22:40:21;;;;;;;52.60;18.83;;;;;;;-7.71;100.00;101835.72;5076562;28;20041;-70
2022/12/17 22:43:29;;;;;;;52.47;18.85;;;;;;;-7.73;100.00;101833.06;5066429;28;20059;-74
2022/12/17 22:46:16;;;;;;;54.08;18.17;;;;;;;-7.69;100.00;101834.94;5060893;28;20075;-71
2022/12/17 22:48:44;;;;;;;57.72;20.17;;;;;;;-7.66;100.00;101826.50;5062499;28;20044;-73
2022/12/17 22:51:11;;;;;;;62.17;20.48;;;;;;;-7.72;100.00;101816.81;5061054;28;20087;-70
2022/12/17 22:54:00;;;;;;;63.20;20.88;;;;;;;-7.67;100.00;101827.31;5059966;28;20044;-70
2022/12/17 22:56:27;;;;;;;56.28;20.95;;;;;;;-7.72;100.00;101827.09;5070194;28;20047;-70
2022/12/17 22:59:15;;;;;;;60.50;20.42;;;;;;;-7.78;100.00;101819.97;5066406;28;20044;-71
2022/12/17 23:01:42;;;;;;;63.63;22.30;;;;;;;-7.64;100.00;101832.63;5069539;28;20798;-70
2022/12/17 23:04:14;;;;;;;58.90;22.38;;;;;;;-7.60;100.00;101827.72;5069776;28;20045;-71
2022/12/17 23:06:44;;;;;;;59.78;20.40;;;;;;;-7.59;100.00;101829.47;5087417;28;20502;-70
2022/12/17 23:09:14;;;;;;;67.35;22.20;;;;;;;-7.60;100.00;101829.41;5093454;28;20435;-70
2022/12/17 23:11:41;;;;;;;;;;;;;;;-7.57;100.00;101829.56;5085129;28;20085;-70
2022/12/17 23:14:08;;;;;;;64.57;21.38;;;;;;;-7.53;100.00;101832.31;5077553;28;19924;-71
2022/12/17 23:16:37;;;;;;;66.03;21.95;;;;;;;-7.46;100.00;101826.69;5077809;28;20044;-69
2022/12/17 23:19:04;;;;;;;64.43;21.13;;;;;;;-7.58;100.00;101810.66;5078297;28;20452;-70
2022/12/17 23:21:31;;;;;;;64.88;20.90;;;;;;;-7.58;100.00;101818.38;5065282;28;20053;-71
2022/12/17 23:23:58;;;;;;;62.58;20.55;;;;;;;-7.56;100.00;101813.31;5057397;28;20071;-70
2022/12/17 23:26:27;;;;;;;64.88;21.85;;;;;;;-7.52;100.00;101820.34;5068923;28;20147;-71
2022/12/17 23:28:58;;;;;;;58.92;19.98;;;;;;;-7.55;100.00;101822.75;5071054;28;20051;-71
2022/12/17 23:31:26;;;;;;;;;;;;;;;-7.62;100.00;101831.88;5068195;28;20147;-70
2022/12/17 23:33:52;;;;;;;56.00;17.65;;;;;;;-7.68;100.00;101826.44;5068361;28;19927;-71
2022/12/17 23:36:22;;;;;;;60.47;19.42;;;;;;;-7.88;100.00;101796.31;5064975;28;20446;-70
2022/12/17 23:38:49;;;;;;;56.70;20.45;;;;;;;-7.68;100.00;101834.16;5072419;28;20055;-71
2022/12/17 23:41:19;;;;;;;63.80;19.92;;;;;;;-7.93;100.00;101796.06;5070523;28;20076;-70
2022/12/17 23:43:46;;;;;;;54.85;20.15;;;;;;;-7.80;100.00;101833.53;5066476;28;20055;-70
2022/12/17 23:46:15;;;;;;;57.97;20.05;;;;;;;-7.81;100.00;101835.22;5071402;28;20491;-69
2022/12/17 23:48:44;;;;;;;57.70;19.42;;;;;;;-7.80;100.00;101820.69;5069522;28;20127;-69
2022/12/17 23:51:13;;;;;;;57.13;18.92;;;;;;;-7.76;100.00;101834.59;5069408;28;20045;-69
2022/12/17 23:53:41;;;;;;;52.72;19.08;;;;;;;-7.72;100.00;101844.22;5064263;28;20090;-69
2022/12/17 23:56:20;;;;;;;52.80;19.25;;;;;;;-7.79;100.00;101843.03;5065981;28;20106;-72
2022/12/17 23:58:50;;;;;;;53.30;20.15;;;;;;;-7.79;100.00;101838.78;5068663;28;20054;-69
